Time;durP1;ratioP1;P1;durP2;ratioP2;P2;SDS_P1;SDS_P2;PMS_P1;PMS_P2;Temp;Humidity;BMP_temperature;BMP_pressure;BME280_temperature;BME280_humidity;BME280_pressure;Samples;Min_cycle;Max_cycle;Signal;HPM_P1;HPM_P2
2022/05/25 00:02:13;;;;;;;11.53;6.10;;;;;;;20.16;nan;93563.44;4988938;28;20303;-74
2022/05/25 00:04:57;;;;;;;13.40;5.97;;;;;;;20.10;nan;93568.94;4990012;28;20271;-73
2022/05/25 00:07:42;;;;;;;12.80;7.30;;;;;;;20.06;nan;93565.97;4999338;28;20258;-71
2022/05/25 00:10:26;;;;;;;11.53;6.90;;;;;;;20.07;nan;93567.41;4985551;28;20215;-75
2022/05/25 00:13:10;;;;;;;13.23;7.13;;;;;;;19.86;nan;93568.22;4993736;28;20593;-72
2022/05/25 00:15:54;;;;;;;13.47;8.20;;;;;;;19.86;nan;93571.78;4972310;28;20227;-76
2022/05/25 00:19:58;;;;;;;11.13;8.23;;;;;;;19.64;nan;93571.78;4994154;28;20310;-73
2022/05/25 00:21:46;;;;;;;19.70;8.27;;;;;;;20.01;nan;93567.25;4997715;28;20198;-72
2022/05/25 00:24:30;;;;;;;20.23;8.77;;;;;;;20.06;nan;93560.28;4992407;28;20203;-71
2022/05/25 00:27:14;;;;;;;16.03;7.37;;;;;;;20.14;nan;93552.72;5003015;28;20292;-71
2022/05/25 00:29:58;;;;;;;12.03;7.27;;;;;;;20.11;nan;93541.97;4984398;28;20571;-74
2022/05/25 00:32:43;;;;;;;12.57;7.50;;;;;;;20.06;nan;93528.97;5008704;28;20202;-74
2022/05/25 00:35:30;;;;;;;13.60;8.07;;;;;;;19.97;nan;93521.63;5004883;28;20274;-74
2022/05/25 00:38:14;;;;;;;13.37;7.50;;;;;;;20.08;nan;93532.63;4990490;28;20230;-74
2022/05/25 00:40:58;;;;;;;11.50;7.00;;;;;;;20.01;nan;93533.09;4968245;28;20207;-74
2022/05/25 00:43:43;;;;;;;13.23;7.20;;;;;;;20.18;nan;93532.22;5012151;28;20221;-75
2022/05/25 00:46:28;;;;;;;15.00;8.93;;;;;;;19.93;nan;93544.25;4994306;28;20230;-73
2022/05/25 00:49:25;;;;;;;25.13;10.30;;;;;;;19.58;nan;93546.03;4991432;28;20595;-74
2022/05/25 00:52:13;;;;;;;14.73;7.93;;;;;;;19.80;nan;93554.53;4992472;28;20641;-75
2022/05/25 00:55:04;;;;;;;12.83;7.43;;;;;;;19.81;nan;93566.63;4986703;28;20565;-74
2022/05/25 00:57:49;;;;;;;15.67;8.00;;;;;;;19.70;nan;93568.41;5002949;28;20567;-74
2022/05/25 01:00:33;;;;;;;13.93;7.93;;;;;;;19.75;nan;93576.41;5009912;28;20202;-74
2022/05/25 01:03:19;;;;;;;29.20;10.13;;;;;;;19.87;nan;93575.34;4990086;28;20254;-74
2022/05/25 01:06:14;;;;;;;13.97;7.40;;;;;;;19.87;nan;93578.19;4991954;28;20564;-74
2022/05/25 01:09:12;;;;;;;28.10;10.63;;;;;;;19.92;nan;93576.94;5000466;28;20195;-74
2022/05/25 01:11:59;;;;;;;15.00;7.20;;;;;;;19.76;nan;93577.84;4971768;28;20740;-74
2022/05/25 01:14:52;;;;;;;14.33;7.87;;;;;;;19.83;nan;93578.06;4989662;28;20203;-75
2022/05/25 01:18:07;;;;;;;11.63;7.77;;;;;;;19.75;nan;93576.41;4993015;28;20229;-74
2022/05/25 01:21:05;;;;;;;12.63;6.87;;;;;;;19.96;nan;93571.34;5004346;28;20285;-73
2022/05/25 01:24:03;;;;;;;10.73;7.47;;;;;;;19.81;nan;93572.31;5008017;28;20649;-74
2022/05/25 01:26:51;;;;;;;13.53;7.00;;;;;;;19.78;nan;93574.38;5003712;28;20947;-73
2022/05/25 01:29:54;;;;;;;10.80;7.40;;;;;;;20.00;nan;93591.38;4985328;28;20199;-74
2022/05/25 01:32:47;;;;;;;13.07;7.03;;;;;;;19.66;nan;93588.91;5007218;28;20297;-73
2022/05/25 01:35:59;;;;;;;11.50;8.30;;;;;;;19.64;nan;93588.84;5003281;28;20195;-73
2022/05/25 01:38:50;;;;;;;12.40;9.63;;;;;;;19.40;nan;93576.66;5007444;28;20263;-73
2022/05/25 01:41:39;;;;;;;16.23;9.17;;;;;;;19.76;nan;93586.38;4996276;28;20785;-71
2022/05/25 01:44:35;;;;;;;19.33;11.17;;;;;;;19.61;nan;93590.19;4993917;28;20290;-72
2022/05/25 01:47:24;;;;;;;16.87;11.40;;;;;;;19.79;nan;93596.44;4992418;28;20702;-71
2022/05/25 01:50:19;;;;;;;18.37;12.03;;;;;;;19.42;nan;93599.47;4984740;28;20347;-69
2022/05/25 01:53:07;;;;;;;15.23;11.03;;;;;;;19.70;nan;93591.16;5001277;28;20202;-73
2022/05/25 01:55:55;;;;;;;15.20;10.57;;;;;;;19.86;nan;93588.09;4989754;28;20282;-69
2022/05/25 01:58:42;;;;;;;16.17;10.40;;;;;;;19.68;nan;93597.53;5009100;28;20290;-69
2022/05/25 02:01:27;;;;;;;13.77;10.13;;;;;;;19.55;nan;93604.19;4992954;28;20203;-70
2022/05/25 02:04:20;;;;;;;17.43;11.93;;;;;;;19.90;nan;93608.13;5007273;28;20302;-70
2022/05/25 02:07:11;;;;;;;11.83;9.50;;;;;;;19.68;nan;93611.00;4990404;28;20267;-70
2022/05/25 02:10:16;;;;;;;13.97;10.00;;;;;;;19.54;nan;93608.41;4993532;28;20198;-76
2022/05/25 02:13:30;;;;;;;15.87;10.93;;;;;;;19.44;nan;93619.44;4994503;28;20219;-74
2022/05/25 02:16:41;;;;;;;12.43;9.03;;;;;;;19.39;nan;93620.66;4999349;28;20198;-76
2022/05/25 02:19:38;;;;;;;11.73;9.10;;;;;;;19.60;nan;93614.31;5012150;28;20723;-73
2022/05/25 02:22:30;;;;;;;16.30;10.13;;;;;;;19.75;nan;93621.16;5000517;28;20585;-73
2022/05/25 02:25:23;;;;;;;17.17;9.83;;;;;;;20.09;nan;93618.69;4990538;28;20249;-73
2022/05/25 02:28:18;;;;;;;14.07;9.63;;;;;;;19.20;nan;93616.47;4987941;28;20207;-73
2022/05/25 02:31:06;;;;;;;16.67;9.90;;;;;;;19.52;nan;93610.47;5007613;28;20703;-74
2022/05/25 02:33:55;;;;;;;15.80;9.67;;;;;;;18.91;nan;93614.78;4984561;28;20243;-74
2022/05/25 02:36:41;;;;;;;11.83;10.47;;;;;;;19.15;nan;93619.84;4989398;28;20195;-75
2022/05/25 02:39:25;;;;;;;11.57;9.33;;;;;;;18.90;nan;93613.31;5011325;28;20233;-73
2022/05/25 02:42:16;;;;;;;9.83;8.13;;;;;;;19.28;nan;93621.72;4998473;28;20325;-74
2022/05/25 02:45:00;;;;;;;12.13;8.93;;;;;;;19.58;nan;93619.91;4985663;28;20211;-74
2022/05/25 02:47:44;;;;;;;12.10;9.37;;;;;;;19.42;nan;93624.31;5011530;28;20199;-75
2022/05/25 02:50:28;;;;;;;14.00;9.20;;;;;;;19.07;nan;93619.59;5003441;28;20393;-74
2022/05/25 02:53:12;;;;;;;8.80;6.97;;;;;;;18.76;nan;93626.28;4977433;28;20250;-75
2022/05/25 02:55:57;;;;;;;16.03;8.07;;;;;;;19.05;nan;93639.38;4994740;28;20210;-75
2022/05/25 02:58:40;;;;;;;11.63;7.33;;;;;;;18.92;nan;93633.28;4996662;28;20579;-73
2022/05/25 03:01:25;;;;;;;10.43;7.63;;;;;;;19.31;nan;93637.47;5008592;28;20210;-73
2022/05/25 03:04:10;;;;;;;13.83;9.50;;;;;;;19.39;nan;93637.72;5004175;28;20206;-73
2022/05/25 03:06:54;;;;;;;16.17;8.93;;;;;;;19.13;nan;93645.34;5004233;28;20235;-74
2022/05/25 03:09:38;;;;;;;9.50;8.30;;;;;;;18.89;nan;93654.44;5023417;28;20203;-75
2022/05/25 03:12:23;;;;;;;11.20;10.00;;;;;;;19.04;nan;93644.31;5017369;28;20210;-73
2022/05/25 03:15:08;;;;;;;13.53;9.20;;;;;;;19.40;nan;93650.53;5016136;28;20253;-74
2022/05/25 03:17:52;;;;;;;16.37;9.63;;;;;;;19.53;nan;93663.81;4990404;28;20238;-75
2022/05/25 03:20:36;;;;;;;11.03;9.67;;;;;;;18.93;nan;93663.13;5004669;28;20202;-74
2022/05/25 03:23:20;;;;;;;15.40;10.03;;;;;;;19.21;nan;93665.50;5004347;28;20331;-72
2022/05/25 03:26:04;;;;;;;24.37;11.73;;;;;;;19.56;nan;93670.28;4990896;28;20362;-73
2022/05/25 03:28:48;;;;;;;16.87;11.83;;;;;;;19.67;nan;93672.81;5010311;28;20249;-77
2022/05/25 03:31:32;;;;;;;24.37;12.43;;;;;;;19.57;nan;93672.47;5016962;28;20318;-74
2022/05/25 03:34:18;;;;;;;17.43;12.80;;;;;;;19.50;nan;93670.81;5004042;28;20230;-74
2022/05/25 03:37:03;;;;;;;18.33;13.07;;;;;;;19.60;nan;93668.31;4997968;28;20203;-74
2022/05/25 03:39:48;;;;;;;15.73;11.77;;;;;;;19.09;nan;93667.91;5023716;28;20625;-73
2022/05/25 03:42:33;;;;;;;21.90;14.20;;;;;;;19.42;nan;93664.81;5010742;28;20204;-73
2022/05/25 03:45:17;;;;;;;21.43;14.10;;;;;;;19.34;nan;93673.78;5002121;28;20203;-68
2022/05/25 03:48:07;;;;;;;23.37;13.87;;;;;;;18.77;nan;93675.97;5005016;28;20221;-70
2022/05/25 03:50:51;;;;;;;28.77;14.40;;;;;;;19.28;nan;93678.53;5004130;28;20266;-71
2022/05/25 03:53:35;;;;;;;25.33;14.40;;;;;;;19.59;nan;93678.22;5006820;28;20314;-71
2022/05/25 03:56:20;;;;;;;19.43;12.83;;;;;;;18.93;nan;93677.31;5002609;28;20203;-73
2022/05/25 03:59:05;;;;;;;25.20;14.33;;;;;;;19.67;nan;93678.50;5008486;28;20299;-68
2022/05/25 04:01:48;;;;;;;25.67;15.57;;;;;;;19.82;nan;93687.47;4996171;28;20222;-70
2022/05/25 04:04:33;;;;;;;21.47;14.23;;;;;;;19.33;nan;93686.53;5003222;28;20212;-73
2022/05/25 04:07:17;;;;;;;21.97;14.30;;;;;;;18.76;nan;93688.75;5000952;28;20266;-72
2022/05/25 04:10:03;;;;;;;19.90;14.60;;;;;;;18.97;nan;93685.97;5010661;28;20222;-73
2022/05/25 04:12:47;;;;;;;25.87;16.37;;;;;;;19.16;nan;93687.34;4990225;28;20211;-73
2022/05/25 04:15:33;;;;;;;30.53;17.13;;;;;;;19.30;nan;93687.13;4986166;28;20207;-73
2022/05/25 04:18:17;;;;;;;23.07;15.57;;;;;;;19.15;nan;93688.00;4981565;28;20653;-73
2022/05/25 04:21:01;;;;;;;31.73;16.83;;;;;;;19.37;nan;93697.34;5012017;28;20577;-72
2022/05/25 04:23:46;;;;;;;25.40;16.43;;;;;;;19.20;nan;93698.84;4992020;28;20233;-75
2022/05/25 04:26:30;;;;;;;29.00;17.73;;;;;;;19.71;nan;93704.22;5003687;28;20768;-73
2022/05/25 04:29:15;;;;;;;22.80;16.50;;;;;;;19.40;nan;93713.06;4989033;28;20262;-73
2022/05/25 04:31:59;;;;;;;23.40;16.80;;;;;;;19.05;nan;93716.06;5011358;28;20234;-70
2022/05/25 04:34:43;;;;;;;26.13;17.97;;;;;;;18.90;nan;93720.47;4994613;28;20218;-71
2022/05/25 04:40:41;;;;;;;27.00;17.80;;;;;;;19.09;nan;93725.44;4998766;28;20556;-72
2022/05/25 04:43:27;;;;;;;28.63;18.20;;;;;;;18.98;nan;93730.03;4990448;28;20602;-72
2022/05/25 04:46:12;;;;;;;32.43;19.67;;;;;;;19.15;nan;93734.19;4985213;28;20274;-71
2022/05/25 04:48:57;;;;;;;37.03;21.00;;;;;;;19.90;nan;93747.47;4995161;28;20299;-72
2022/05/25 04:51:41;;;;;;;36.93;21.63;;;;;;;19.54;nan;93739.16;4983623;28;20230;-72
2022/05/25 04:54:26;;;;;;;46.30;22.53;;;;;;;19.67;nan;93735.34;4999620;28;20208;-72
2022/05/25 04:57:19;;;;;;;47.83;22.67;;;;;;;19.72;nan;93742.63;5003476;28;20219;-72
2022/05/25 05:00:06;;;;;;;57.10;24.80;;;;;;;19.94;nan;93747.59;5000232;28;20226;-71
2022/05/25 05:02:50;;;;;;;55.30;24.43;;;;;;;19.66;nan;93750.22;4996734;28;20222;-72
2022/05/25 05:05:35;;;;;;;38.30;23.17;;;;;;;19.31;nan;93751.09;5011576;28;20254;-70
2022/05/25 05:08:19;;;;;;;51.80;24.40;;;;;;;19.13;nan;93764.63;5008541;28;20780;-72
2022/05/25 05:11:12;;;;;;;48.33;25.40;;;;;;;19.53;nan;93774.66;5004171;28;20207;-72
2022/05/25 05:13:57;;;;;;;46.67;26.10;;;;;;;18.83;nan;93776.28;5009923;28;20196;-73
2022/05/25 05:16:41;;;;;;;49.87;26.90;;;;;;;18.35;nan;93777.22;5008055;28;20236;-73
2022/05/25 05:19:38;;;;;;;55.17;29.03;;;;;;;19.41;nan;93788.38;4996897;28;20223;-73
2022/05/25 05:22:29;;;;;;;57.20;29.53;;;;;;;19.31;nan;93790.88;4987362;28;20751;-71
2022/05/25 05:25:13;;;;;;;63.93;31.07;;;;;;;19.26;nan;93794.94;4997860;28;20230;-71
2022/05/25 05:28:32;;;;;;;59.67;29.67;;;;;;;19.46;nan;93800.66;4989777;28;20203;-73
2022/05/25 05:31:16;;;;;;;64.67;30.40;;;;;;;19.76;nan;93799.63;4983311;28;20254;-71
2022/05/25 05:34:00;;;;;;;55.17;29.27;;;;;;;19.70;nan;93807.22;5011524;28;20282;-72
2022/05/25 05:36:49;;;;;;;72.97;33.03;;;;;;;19.64;nan;93815.50;5010119;28;20206;-72
2022/05/25 05:39:37;;;;;;;76.83;32.07;;;;;;;19.61;nan;93826.09;5014038;28;20227;-73
2022/05/25 05:42:24;;;;;;;70.13;30.57;;;;;;;19.59;nan;93828.88;4994207;28;20223;-71
2022/05/25 05:45:13;;;;;;;77.97;30.90;;;;;;;19.92;nan;93836.44;5006107;28;20295;-73
2022/05/25 05:48:06;;;;;;;35.60;20.70;;;;;;;19.81;nan;93833.91;5005324;28;20204;-72
2022/05/25 05:50:56;;;;;;;29.70;19.63;;;;;;;20.39;nan;93844.47;5010665;28;20761;-74
2022/05/25 05:53:41;;;;;;;42.10;20.53;;;;;;;20.64;nan;93850.97;5005070;28;20250;-72
2022/05/25 05:56:27;;;;;;;34.33;19.17;;;;;;;19.56;nan;93855.78;4996001;28;20683;-72
2022/05/25 05:59:11;;;;;;;33.57;19.07;;;;;;;20.29;nan;93864.03;5010238;28;20219;-72
2022/05/25 06:01:56;;;;;;;25.30;15.17;;;;;;;19.88;nan;93866.84;5004872;28;20253;-73
2022/05/25 06:04:40;;;;;;;19.13;13.43;;;;;;;19.62;nan;93863.78;4995546;28;20238;-74
2022/05/25 06:07:23;;;;;;;24.60;14.70;;;;;;;19.52;nan;93875.50;5009788;28;20223;-71
2022/05/25 06:10:08;;;;;;;19.93;13.87;;;;;;;19.37;nan;93882.03;5011110;28;20254;-74
2022/05/25 06:12:53;;;;;;;19.07;12.13;;;;;;;20.19;nan;93883.59;5023397;28;20195;-73
2022/05/25 06:21:44;;;;;;;10.70;9.60;;;;;;;19.84;nan;93883.75;5003831;28;20206;-73
2022/05/25 06:24:33;;;;;;;9.77;7.17;;;;;;;19.58;nan;93892.78;4994494;28;20203;-74
2022/05/25 06:27:19;;;;;;;8.03;6.63;;;;;;;19.28;nan;93906.53;5004956;28;20202;-71
2022/05/25 06:30:04;;;;;;;7.57;6.70;;;;;;;19.70;nan;93915.97;5009852;28;20198;-74
2022/05/25 06:32:48;;;;;;;10.30;7.53;;;;;;;20.52;nan;93923.19;5006288;28;20530;-72
2022/05/25 06:35:36;;;;;;;9.00;7.97;;;;;;;20.29;nan;93920.22;5020053;28;20195;-72
2022/05/25 06:38:20;;;;;;;5.03;4.60;;;;;;;20.05;nan;93925.78;5004277;28;20226;-73
2022/05/25 06:41:04;;;;;;;5.37;4.87;;;;;;;20.58;nan;93929.09;5010110;28;20290;-71
2022/05/25 06:43:48;;;;;;;6.07;5.33;;;;;;;20.80;nan;93931.25;5004661;28;20210;-73
2022/05/25 06:46:32;;;;;;;5.57;3.93;;;;;;;21.16;nan;93941.00;5011257;28;20194;-73
2022/05/25 06:49:16;;;;;;;4.80;3.90;;;;;;;21.06;nan;93940.63;4992946;28;20283;-74
2022/05/25 06:52:00;;;;;;;3.60;3.30;;;;;;;20.96;nan;93935.34;5019946;28;20736;-74
2022/05/25 06:54:44;;;;;;;7.30;3.50;;;;;;;21.08;nan;93937.84;4994939;28;20283;-73
2022/05/25 06:57:28;;;;;;;4.57;3.13;;;;;;;20.99;nan;93936.13;5005618;28;20207;-73
2022/05/25 07:00:13;;;;;;;9.83;3.83;;;;;;;21.21;nan;93945.44;4999715;28;20351;-74
2022/05/25 07:02:59;;;;;;;3.00;1.87;;;;;;;21.20;nan;93951.78;4999110;28;20226;-73
2022/05/25 07:05:43;;;;;;;2.00;1.60;;;;;;;20.53;nan;93964.50;5004652;28;20194;-73
2022/05/25 07:08:27;;;;;;;18.30;13.60;;;;;;;21.03;nan;93959.06;5007758;28;20214;-74
2022/05/25 07:11:12;;;;;;;16.03;10.57;;;;;;;21.11;nan;93961.47;5010258;28;20238;-73
2022/05/25 07:13:59;;;;;;;23.60;18.13;;;;;;;21.42;nan;93966.03;5006187;28;20202;-73
2022/05/25 07:16:43;;;;;;;12.53;7.70;;;;;;;21.06;nan;93968.41;5002886;28;20222;-73
2022/05/25 07:19:28;;;;;;;4.60;3.63;;;;;;;20.78;nan;93979.59;5001796;28;20759;-73
2022/05/25 07:22:12;;;;;;;1.43;1.33;;;;;;;20.34;nan;93979.47;5024184;28;20245;-72
2022/05/25 07:24:56;;;;;;;2.70;1.50;;;;;;;20.23;nan;93974.78;5005360;28;20724;-72
2022/05/25 07:27:40;;;;;;;5.83;1.67;;;;;;;20.98;nan;93974.56;5001941;28;20249;-72
2022/05/25 07:30:24;;;;;;;2.57;1.33;;;;;;;21.01;nan;93984.63;5021285;28;20612;-72
2022/05/25 07:33:09;;;;;;;2.13;1.20;;;;;;;20.61;nan;93983.25;5006649;28;20210;-72
2022/05/25 07:35:54;;;;;;;2.47;1.40;;;;;;;21.43;nan;93987.44;5008947;28;20207;-72
2022/05/25 07:38:44;;;;;;;2.03;1.83;;;;;;;21.81;nan;93974.38;5013349;28;20227;-73
2022/05/25 07:41:29;;;;;;;2.43;1.57;;;;;;;22.30;nan;93976.53;5010172;28;20246;-72
2022/05/25 07:44:20;;;;;;;1.40;1.00;;;;;;;22.56;nan;93985.13;5021333;28;20635;-72
2022/05/25 07:47:05;;;;;;;1.27;1.00;;;;;;;22.93;nan;93987.56;5014841;28;20682;-71
2022/05/25 07:49:49;;;;;;;1.37;0.93;;;;;;;22.74;nan;93999.91;5004639;28;20203;-72
2022/05/25 07:52:38;;;;;;;2.53;0.97;;;;;;;22.97;nan;93989.78;5012290;28;20195;-72
2022/05/25 07:55:23;;;;;;;1.17;1.07;;;;;;;23.18;nan;93999.63;5013872;28;20733;-72
2022/05/25 07:58:06;;;;;;;1.37;1.27;;;;;;;23.69;nan;93988.03;5008955;28;20207;-72
2022/05/25 08:00:54;;;;;;;1.07;0.93;;;;;;;23.98;nan;93986.53;5014411;28;20207;-73
2022/05/25 08:06:42;;;;;;;1.90;1.20;;;;;;;24.13;nan;94004.78;4994822;28;20199;-74
2022/05/25 08:09:27;;;;;;;0.93;0.93;;;;;;;23.82;nan;93983.34;4998328;28;20281;-74
2022/05/25 08:12:12;;;;;;;0.97;0.97;;;;;;;24.20;nan;93986.31;4998537;28;20211;-76
2022/05/25 08:14:56;;;;;;;0.77;0.77;;;;;;;24.42;nan;93989.66;5006709;28;20270;-74
2022/05/25 08:17:42;;;;;;;1.30;0.67;;;;;;;25.12;nan;93992.44;5001143;28;20227;-74
2022/05/25 08:20:28;;;;;;;3.17;0.80;;;;;;;25.56;nan;93997.47;4994027;28;21031;-75
2022/05/25 08:23:14;;;;;;;0.70;0.70;;;;;;;25.41;nan;93995.81;4987994;28;20796;-74
2022/05/25 08:25:58;;;;;;;0.50;0.50;;;;;;;25.19;nan;93996.88;4986751;28;20207;-74
2022/05/25 08:28:43;;;;;;;0.67;0.60;;;;;;;25.54;nan;94000.34;5007062;28;20283;-73
2022/05/25 08:31:27;;;;;;;0.83;0.63;;;;;;;26.02;nan;94003.25;4994823;28;20311;-70
2022/05/25 08:34:11;;;;;;;0.50;0.50;;;;;;;26.23;nan;94010.72;4990600;28;20262;-72
2022/05/25 08:36:55;;;;;;;1.00;0.70;;;;;;;26.35;nan;94013.09;4985693;28;20210;-71
2022/05/25 08:39:39;;;;;;;0.40;0.40;;;;;;;26.25;nan;94018.69;5002526;28;20223;-68
2022/05/25 08:42:26;;;;;;;0.43;0.40;;;;;;;26.07;nan;94019.13;4998789;28;20231;-71
2022/05/25 08:45:12;;;;;;;2.30;0.50;;;;;;;26.25;nan;94024.41;4998636;28;20200;-72
2022/05/25 08:47:58;;;;;;;1.57;0.60;;;;;;;26.13;nan;94022.06;5000503;28;20274;-71
2022/05/25 08:50:44;;;;;;;1.53;0.50;;;;;;;25.63;nan;94016.28;4984888;28;20668;-71
2022/05/25 08:53:29;;;;;;;0.50;0.50;;;;;;;25.20;nan;94015.53;4997535;28;20257;-71
2022/05/25 08:56:33;;;;;;;0.50;0.50;;;;;;;25.23;nan;94025.63;4982489;28;20242;-72
2022/05/25 08:59:26;;;;;;;0.43;0.40;;;;;;;24.83;nan;94030.56;4993387;28;20230;-72
2022/05/25 09:02:20;;;;;;;0.73;0.57;;;;;;;25.84;nan;94020.22;4998907;28;20640;-71
2022/05/25 09:05:18;;;;;;;1.07;0.53;;;;;;;24.29;nan;94028.03;4991796;28;20680;-73
2022/05/25 09:08:26;;;;;;;0.60;0.30;;;;;;;23.72;nan;94029.59;5015213;28;20202;-71
2022/05/25 09:11:15;;;;;;;2.07;0.60;;;;;;;23.61;nan;94030.03;5013623;28;21041;-70
2022/05/25 09:14:11;;;;;;;3.60;0.77;;;;;;;25.04;nan;94032.44;5015838;28;20207;-72
2022/05/25 09:17:00;;;;;;;0.40;0.40;;;;;;;25.06;nan;94041.06;5008391;28;20206;-73
2022/05/25 09:19:46;;;;;;;0.93;0.70;;;;;;;24.95;nan;94039.44;5007091;28;20304;-74
2022/05/25 09:22:31;;;;;;;3.33;1.20;;;;;;;25.45;nan;94038.91;5012538;28;20211;-74
2022/05/25 09:25:17;;;;;;;1.70;0.77;;;;;;;26.01;nan;94039.84;4991614;28;20283;-75
2022/05/25 09:28:20;;;;;;;1.10;0.93;;;;;;;26.67;nan;94042.22;5006332;28;20290;-74
2022/05/25 09:31:06;;;;;;;0.80;0.80;;;;;;;25.35;nan;94048.06;5012674;28;20214;-75
2022/05/25 09:34:03;;;;;;;0.87;0.70;;;;;;;26.74;nan;94040.88;4996323;28;20234;-74
2022/05/25 09:36:54;;;;;;;3.83;0.57;;;;;;;26.71;nan;94042.28;5007456;28;20342;-74
2022/05/25 09:39:43;;;;;;;1.17;0.67;;;;;;;24.64;nan;94043.09;5013515;28;20687;-75
2022/05/25 09:42:33;;;;;;;0.65;0.60;;;;;;;26.62;nan;94052.22;5007454;28;20215;-75
2022/05/25 09:45:19;;;;;;;2.17;0.60;;;;;;;26.85;nan;94062.56;5013029;28;20226;-75
2022/05/25 09:48:18;;;;;;;3.33;0.70;;;;;;;26.16;nan;94061.63;4997942;28;20198;-74
2022/05/25 09:51:02;;;;;;;0.93;0.50;;;;;;;27.66;nan;94063.50;5011085;28;20270;-74
2022/05/25 09:53:56;;;;;;;2.60;2.40;;;;;;;27.36;nan;94066.06;4997322;28;20215;-73
2022/05/25 09:56:51;;;;;;;0.30;0.30;;;;;;;28.09;nan;94058.09;5002008;28;20284;-74
2022/05/25 09:59:42;;;;;;;0.30;0.30;;;;;;;29.66;nan;94060.31;4999261;28;20590;-74
2022/05/25 10:02:41;;;;;;;0.55;0.30;;;;;;;30.38;nan;94070.47;4997592;28;20228;-74
2022/05/25 10:05:30;;;;;;;0.38;0.30;;;;;;;28.47;nan;94069.91;4995678;28;20215;-75
2022/05/25 10:08:24;;;;;;;1.17;0.52;;;;;;;28.14;nan;94071.84;4998438;28;20596;-75
2022/05/25 10:11:28;;;;;;;0.47;0.47;;;;;;;28.44;nan;94071.34;5004135;28;20202;-75
2022/05/25 10:14:33;;;;;;;0.50;0.50;;;;;;;27.78;nan;94075.13;4988015;28;20254;-75
2022/05/25 10:17:40;;;;;;;0.70;0.50;;;;;;;29.28;nan;94064.53;5004383;28;20931;-74
2022/05/25 10:20:28;;;;;;;0.88;0.50;;;;;;;27.07;nan;94058.56;5007646;28;20230;-74
2022/05/25 10:23:19;;;;;;;0.50;0.50;;;;;;;29.23;nan;94068.13;5006981;28;20211;-74
2022/05/25 10:26:32;;;;;;;1.75;0.80;;;;;;;27.23;nan;94070.97;4994209;28;20207;-75
2022/05/25 10:39:24;;;;;;;0.63;0.30;;;;;;;27.75;nan;94053.53;5006785;28;20238;-75
2022/05/25 10:42:25;;;;;;;0.70;0.32;;;;;;;29.63;nan;94044.41;5009603;28;20238;-75
2022/05/25 10:45:14;;;;;;;1.08;0.50;;;;;;;28.55;nan;94049.78;5007986;28;20204;-76
2022/05/25 10:48:23;;;;;;;2.30;0.47;;;;;;;28.09;nan;94055.22;5008098;28;20191;-75
2022/05/25 10:51:13;;;;;;;1.15;0.60;;;;;;;27.38;nan;94057.47;5015018;28;20206;-76
2022/05/25 10:57:48;;;;;;;1.15;0.60;;;;;;;28.91;nan;94057.19;4995491;28;20699;-75
2022/05/25 11:01:04;;;;;;;0.47;0.40;;;;;;;28.52;nan;94056.25;4977264;28;20270;-75
2022/05/25 11:04:30;;;;;;;0.55;0.47;;;;;;;30.53;nan;94066.13;5013324;28;20593;-76
2022/05/25 11:07:17;;;;;;;0.80;0.50;;;;;;;31.65;nan;94067.19;5007689;28;20202;-76
2022/05/25 11:10:29;;;;;;;2.25;0.50;;;;;;;30.53;nan;94058.19;5001599;28;20253;-77
2022/05/25 11:13:47;;;;;;;1.75;0.40;;;;;;;28.58;nan;94068.53;5025502;28;20205;-77
2022/05/25 11:16:49;;;;;;;0.32;0.32;;;;;;;29.12;nan;94067.38;5028508;28;20233;-76
2022/05/25 11:19:56;;;;;;;0.80;0.30;;;;;;;31.43;nan;94067.25;5019503;28;20268;-76
2022/05/25 11:23:05;;;;;;;1.83;0.40;;;;;;;31.29;nan;94084.72;5014519;28;20209;-76
2022/05/25 11:26:23;;;;;;;0.90;0.60;;;;;;;30.62;nan;94076.22;5029529;28;20201;-76
2022/05/25 11:29:33;;;;;;;1.10;0.40;;;;;;;31.00;nan;94080.47;5014741;28;20213;-76
2022/05/25 11:32:28;;;;;;;0.90;0.40;;;;;;;29.46;nan;94066.06;5026094;28;20249;-76
2022/05/25 11:35:21;;;;;;;0.50;0.50;;;;;;;28.90;nan;94084.59;5010200;28;20274;-76
2022/05/25 11:38:24;;;;;;;0.32;0.30;;;;;;;28.48;nan;94076.41;5001891;28;20227;-76
2022/05/25 11:41:23;;;;;;;1.75;0.40;;;;;;;29.74;nan;94081.28;5029499;28;20420;-76
2022/05/25 11:44:13;;;;;;;0.40;0.32;;;;;;;30.43;nan;94083.47;5022176;28;20206;-76
2022/05/25 11:47:23;;;;;;;3.72;0.40;;;;;;;31.22;nan;94089.84;5017196;28;20218;-76
2022/05/25 11:50:42;;;;;;;0.68;0.38;;;;;;;30.23;nan;94083.50;4997387;28;20226;-74
2022/05/25 11:53:31;;;;;;;0.45;0.45;;;;;;;31.43;nan;94081.75;5018165;28;20239;-76
2022/05/25 11:56:41;;;;;;;0.73;0.30;;;;;;;31.84;nan;94073.59;5024369;28;20225;-77
2022/05/25 11:59:59;;;;;;;0.70;0.45;;;;;;;32.23;nan;94079.81;5013534;28;20217;-76
2022/05/25 12:03:25;;;;;;;0.95;0.40;;;;;;;29.51;nan;94079.06;5011775;28;20231;-76
2022/05/25 12:06:19;;;;;;;0.30;0.25;;;;;;;30.03;nan;94079.16;5003646;28;20762;-75
2022/05/25 12:09:17;;;;;;;0.68;0.40;;;;;;;30.73;nan;94077.66;5014708;28;20264;-75
2022/05/25 12:12:21;;;;;;;0.40;0.30;;;;;;;30.73;nan;94063.19;5007538;28;20214;-75
2022/05/25 12:15:14;;;;;;;0.68;0.40;;;;;;;30.88;nan;94079.06;5007585;28;20656;-75
2022/05/25 12:18:18;;;;;;;1.88;0.60;;;;;;;31.07;nan;94081.91;5004961;28;20241;-74
2022/05/25 12:21:02;;;;;;;0.40;0.38;;;;;;;30.54;nan;94082.78;4998380;28;20230;-75
2022/05/25 12:23:55;;;;;;;1.38;0.60;;;;;;;29.32;nan;94072.47;4994934;28;20199;-75
2022/05/25 12:26:39;;;;;;;2.15;0.80;;;;;;;29.44;nan;94074.72;5005799;28;20202;-75
2022/05/25 12:29:35;;;;;;;3.92;0.52;;;;;;;27.94;nan;94074.56;4997735;28;20195;-75
2022/05/25 12:32:20;;;;;;;1.80;0.60;;;;;;;27.52;nan;94089.28;5012786;28;20281;-74
2022/05/25 12:35:06;;;;;;;0.47;0.40;;;;;;;28.00;nan;94080.38;5004364;28;20253;-75
2022/05/25 12:37:53;;;;;;;1.83;0.63;;;;;;;29.91;nan;94072.63;5014252;28;20206;-75
2022/05/25 12:40:40;;;;;;;1.02;0.50;;;;;;;29.21;nan;94077.50;5012579;28;20242;-74
2022/05/25 12:43:49;;;;;;;0.40;0.30;;;;;;;28.79;nan;94075.16;4991174;28;20207;-75
2022/05/25 12:50:01;;;;;;;0.77;0.52;;;;;;;29.77;nan;94071.16;5008098;28;20226;-74
2022/05/25 12:52:46;;;;;;;0.80;0.50;;;;;;;28.57;nan;94080.81;5004132;28;20747;-75
2022/05/25 12:55:32;;;;;;;0.55;0.47;;;;;;;29.24;nan;94078.25;4997945;28;20203;-73
2022/05/25 12:58:32;;;;;;;0.40;0.40;;;;;;;28.80;nan;94087.44;4998072;28;20683;-75
2022/05/25 13:01:22;;;;;;;3.95;0.60;;;;;;;25.97;nan;94080.00;5013016;28;20202;-75
2022/05/25 13:04:14;;;;;;;1.63;0.50;;;;;;;28.03;nan;94087.59;5013859;28;21009;-75
2022/05/25 13:06:58;;;;;;;1.08;0.70;;;;;;;29.66;nan;94086.31;5012677;28;20648;-75
2022/05/25 13:09:43;;;;;;;0.85;0.80;;;;;;;27.85;nan;94084.56;5014133;28;20266;-75
2022/05/25 13:12:39;;;;;;;0.93;0.50;;;;;;;29.57;nan;94087.72;5005094;28;20214;-74
2022/05/25 13:15:23;;;;;;;1.38;0.50;;;;;;;29.45;nan;94087.69;4995392;28;20246;-74
2022/05/25 13:18:09;;;;;;;2.58;0.73;;;;;;;30.97;nan;94090.63;5004080;28;20211;-74
2022/05/25 13:20:54;;;;;;;1.00;0.63;;;;;;;31.55;nan;94090.38;4996924;28;20250;-74
2022/05/25 13:23:53;;;;;;;0.80;0.63;;;;;;;30.61;nan;94091.44;5013551;28;20246;-75
2022/05/25 13:27:09;;;;;;;1.30;0.70;;;;;;;29.26;nan;94090.50;4994496;28;20219;-74
2022/05/25 13:30:02;;;;;;;0.90;0.70;;;;;;;30.41;nan;94095.78;4993801;28;20640;-74
2022/05/25 13:32:54;;;;;;;3.33;0.68;;;;;;;31.51;nan;94099.09;4991126;28;20210;-75
2022/05/25 13:35:41;;;;;;;1.15;0.68;;;;;;;28.51;nan;94095.91;5001971;28;20211;-75
2022/05/25 13:38:28;;;;;;;0.50;0.50;;;;;;;29.50;nan;94094.97;4996104;28;20273;-75
2022/05/25 13:41:26;;;;;;;0.63;0.52;;;;;;;32.12;nan;94090.03;5011612;28;20218;-75
2022/05/25 13:44:18;;;;;;;2.03;0.60;;;;;;;31.34;nan;94092.66;4997917;28;20266;-75
2022/05/25 13:47:02;;;;;;;1.77;0.30;;;;;;;33.50;nan;94091.59;5008947;28;20644;-76
2022/05/25 13:49:55;;;;;;;2.58;0.55;;;;;;;34.51;nan;94090.09;5013614;28;20203;-72
2022/05/25 13:52:45;;;;;;;1.25;0.60;;;;;;;31.29;nan;94088.31;4996500;28;20683;-73
2022/05/25 13:55:33;;;;;;;1.85;0.57;;;;;;;29.52;nan;94083.38;4972047;28;20207;-72
2022/05/25 13:58:19;;;;;;;1.95;0.70;;;;;;;30.72;nan;94076.22;5004355;28;20272;-73
2022/05/25 14:01:09;;;;;;;0.70;0.60;;;;;;;31.98;nan;94087.22;4998407;28;20702;-73
2022/05/25 14:04:05;;;;;;;0.50;0.50;;;;;;;32.30;nan;94089.91;5021098;28;20238;-72